createdAt,value
2023-04-28T00:02:02.490Z,5.95
2023-04-28T00:04:33.652Z,7.68
2023-04-28T00:07:04.584Z,7.60
2023-04-28T00:09:35.432Z,7.60
2023-04-28T00:12:09.261Z,7.10
2023-04-28T00:14:40.848Z,7.22
2023-04-28T00:17:11.648Z,7.38
2023-04-28T00:19:42.475Z,8.18
2023-04-28T00:22:13.271Z,7.53
2023-04-28T00:24:44.073Z,7.50
2023-04-28T00:27:17.509Z,7.15
2023-04-28T00:29:48.389Z,7.60
2023-04-28T00:32:19.166Z,8.32
2023-04-28T00:34:49.922Z,7.55
2023-04-28T00:37:20.841Z,7.72
2023-04-28T00:39:51.628Z,8.07
2023-04-28T00:42:25.254Z,8.23
2023-04-28T00:44:56.089Z,7.90
2023-04-28T00:47:27.273Z,8.23
2023-04-28T00:49:59.114Z,7.53
2023-04-28T00:52:30.640Z,7.22
2023-04-28T00:55:01.983Z,8.13
2023-04-28T00:57:35.488Z,8.07
2023-04-28T01:00:06.992Z,7.88
2023-04-28T01:02:38.632Z,7.68
2023-04-28T01:05:09.991Z,7.80
2023-04-28T01:07:41.420Z,8.65
2023-04-28T01:10:13.961Z,8.60
2023-04-28T01:12:47.449Z,7.40
2023-04-28T01:15:20.865Z,8.30
2023-04-28T01:17:54.475Z,8.07
2023-04-28T01:20:25.292Z,7.68
2023-04-28T01:22:56.277Z,7.53
2023-04-28T01:25:30.112Z,7.28
2023-04-28T01:28:01.406Z,7.68
2023-04-28T01:30:32.422Z,7.75
2023-04-28T01:33:03.428Z,6.70
2023-04-28T01:35:34.380Z,8.18
2023-04-28T01:38:05.142Z,7.72
2023-04-28T01:40:39.687Z,8.55
2023-04-28T01:43:10.466Z,7.60
2023-04-28T01:45:41.406Z,8.38
2023-04-28T01:48:12.296Z,7.43
2023-04-28T01:50:43.142Z,7.43
2023-04-28T01:53:14.452Z,7.80
2023-04-28T01:55:47.899Z,7.75
2023-04-28T01:58:19.855Z,7.50
2023-04-28T02:00:51.333Z,8.05
2023-04-28T02:03:24.207Z,7.45
2023-04-28T02:05:55.106Z,7.38
2023-04-28T02:08:26.109Z,7.85
2023-04-28T02:11:01.907Z,7.22
2023-04-28T02:13:32.840Z,8.00
2023-04-28T02:16:04.564Z,8.55
2023-04-28T02:18:36.357Z,7.15
2023-04-28T02:21:13.414Z,8.90
2023-04-28T02:23:44.314Z,7.65
2023-04-28T02:26:17.803Z,7.88
2023-04-28T02:28:49.328Z,7.53
2023-04-28T02:31:20.689Z,8.02
2023-04-28T02:33:52.234Z,7.80
2023-04-28T02:36:23.039Z,7.82
2023-04-28T02:38:54.006Z,8.45
2023-04-28T02:41:27.363Z,8.07
2023-04-28T02:43:58.151Z,8.55
2023-04-28T02:46:29.195Z,8.90
2023-04-28T02:49:01.382Z,7.88
2023-04-28T02:51:33.295Z,8.10
2023-04-28T02:54:04.495Z,7.85
2023-04-28T02:56:38.078Z,8.88
2023-04-28T02:59:09.039Z,8.15
2023-04-28T03:01:40.037Z,8.48
2023-04-28T03:04:11.298Z,8.32
2023-04-28T03:06:42.584Z,9.35
2023-04-28T03:09:14.229Z,7.80
2023-04-28T03:11:47.929Z,8.13
2023-04-28T03:14:18.826Z,8.07
2023-04-28T03:16:49.902Z,8.50
2023-04-28T03:19:21.129Z,8.18
2023-04-28T03:21:52.005Z,8.13
2023-04-28T03:24:22.766Z,7.63
2023-04-28T03:26:57.396Z,8.73
2023-04-28T03:29:28.256Z,8.63
2023-04-28T03:31:59.135Z,8.35
2023-04-28T03:34:30.155Z,8.13
2023-04-28T03:37:01.098Z,8.13
2023-04-28T03:39:34.167Z,7.50
2023-04-28T03:42:08.130Z,7.10
2023-04-28T03:44:41.781Z,6.85
2023-04-28T03:47:12.668Z,7.85
2023-04-28T03:49:44.037Z,6.95
2023-04-28T03:52:14.980Z,6.70
2023-04-28T03:54:46.302Z,6.25
2023-04-28T03:57:19.765Z,6.00
2023-04-28T03:59:51.434Z,4.53
2023-04-28T04:02:22.437Z,6.10
2023-04-28T04:04:53.537Z,5.68
2023-04-28T04:07:26.443Z,5.13
2023-04-28T04:09:57.342Z,5.30
2023-04-28T04:12:30.760Z,5.43
2023-04-28T04:15:01.788Z,5.45
2023-04-28T04:17:34.100Z,4.05
2023-04-28T04:20:04.964Z,4.68
2023-04-28T04:22:36.197Z,5.28
2023-04-28T04:25:07.705Z,5.55
2023-04-28T04:27:42.071Z,6.10
2023-04-28T04:30:13.749Z,5.25
2023-04-28T04:32:44.692Z,5.50
2023-04-28T04:35:16.712Z,4.97
2023-04-28T04:37:48.028Z,5.07
2023-04-28T04:40:20.145Z,4.68
2023-04-28T04:42:56.803Z,4.15
2023-04-28T04:48:01.759Z,3.90
2023-04-28T04:50:33.516Z,3.72
2023-04-28T04:53:05.214Z,3.63
2023-04-28T04:55:37.244Z,3.90
2023-04-28T04:58:11.902Z,4.20
2023-04-28T05:01:11.605Z,3.78
2023-04-28T05:03:42.086Z,3.78
2023-04-28T05:06:12.589Z,3.90
2023-04-28T05:08:47.177Z,3.00
2023-04-28T05:11:17.539Z,2.83
2023-04-28T05:13:50.559Z,2.80
2023-04-28T05:16:21.311Z,2.53
2023-04-28T05:19:09.152Z,2.60
2023-04-28T05:21:39.484Z,2.60
2023-04-28T05:24:10.209Z,2.53
2023-04-28T05:26:40.589Z,2.75
2023-04-28T05:29:16.007Z,2.58
2023-04-28T05:31:46.696Z,2.38
2023-04-28T05:34:18.164Z,2.83
2023-04-28T05:36:49.096Z,2.47
2023-04-28T05:39:20.835Z,2.33
2023-04-28T05:41:51.411Z,2.25
2023-04-28T05:44:24.397Z,2.28
2023-04-28T05:46:54.918Z,2.42
2023-04-28T05:49:29.440Z,2.28
2023-04-28T05:51:59.704Z,2.17
2023-04-28T05:54:30.110Z,1.98
2023-04-28T05:57:01.697Z,1.70
2023-04-28T05:59:35.534Z,2.17
2023-04-28T06:02:06.036Z,2.00
2023-04-28T06:04:36.729Z,2.30
2023-04-28T06:07:07.369Z,2.30
2023-04-28T06:09:38.170Z,2.50
2023-04-28T06:12:09.233Z,2.45
2023-04-28T06:14:42.196Z,2.38
2023-04-28T06:17:13.020Z,2.00
2023-04-28T06:19:43.390Z,2.22
2023-04-28T06:22:13.854Z,2.25
2023-04-28T06:24:44.258Z,1.45
2023-04-28T06:27:18.020Z,1.90
2023-04-28T06:29:51.657Z,1.63
2023-04-28T06:32:22.068Z,1.80
2023-04-28T06:34:52.388Z,1.48
2023-04-28T06:37:22.845Z,1.45
2023-04-28T06:39:53.177Z,1.35
2023-04-28T06:42:23.577Z,1.50
2023-04-28T06:45:06.382Z,1.40
2023-04-28T06:47:40.879Z,1.38
2023-04-28T06:50:13.420Z,1.45
2023-04-28T06:52:43.762Z,2.17
2023-04-28T06:55:17.472Z,1.20
2023-04-28T06:57:48.080Z,1.75
2023-04-28T07:00:21.624Z,2.05
2023-04-28T07:02:52.083Z,2.22
2023-04-28T07:05:22.493Z,1.88
2023-04-28T07:07:52.729Z,4.30
2023-04-28T07:10:23.207Z,2.53
2023-04-28T07:12:54.209Z,2.10
2023-04-28T07:15:27.105Z,2.38
2023-04-28T07:17:57.552Z,1.35
2023-04-28T07:20:28.031Z,1.15
2023-04-28T07:22:58.297Z,1.10
2023-04-28T07:25:28.746Z,1.38
2023-04-28T07:27:59.088Z,1.10
2023-04-28T07:30:32.060Z,1.00
2023-04-28T07:33:02.791Z,1.08
2023-04-28T07:35:33.365Z,1.10
2023-04-28T07:38:03.890Z,0.95
2023-04-28T07:40:34.284Z,1.10
2023-04-28T07:43:04.846Z,1.10
2023-04-28T07:45:41.175Z,1.10
2023-04-28T07:48:12.052Z,1.00
2023-04-28T07:50:42.509Z,1.25
2023-04-28T07:53:12.864Z,1.20
2023-04-28T07:55:44.924Z,1.48
2023-04-28T07:58:15.634Z,1.10
2023-04-28T08:00:48.615Z,0.93
2023-04-28T08:03:19.249Z,1.08
2023-04-28T08:05:50.068Z,1.20
2023-04-28T08:08:20.434Z,0.80
2023-04-28T08:10:51.004Z,1.10
2023-04-28T08:13:21.456Z,1.00
2023-04-28T08:15:56.674Z,1.00
2023-04-28T08:18:28.156Z,1.00
2023-04-28T08:20:58.696Z,0.88
2023-04-28T08:23:32.115Z,0.90
2023-04-28T08:26:02.571Z,0.85
2023-04-28T08:28:34.155Z,0.75
2023-04-28T08:31:07.440Z,1.08
2023-04-28T08:33:37.900Z,0.82
2023-04-28T08:36:08.908Z,1.20
2023-04-28T08:38:39.265Z,1.17
2023-04-28T08:41:09.980Z,1.27
2023-04-28T08:43:43.011Z,1.20
2023-04-28T08:46:19.145Z,0.80
2023-04-28T08:48:49.638Z,1.05
2023-04-28T08:51:36.064Z,1.15
2023-04-28T08:56:45.366Z,0.93
2023-04-28T08:59:16.149Z,0.98
2023-04-28T09:01:51.702Z,1.13
2023-04-28T09:04:22.813Z,1.00
2023-04-28T09:06:53.480Z,1.35
2023-04-28T09:09:31.703Z,1.65
2023-04-28T09:12:05.683Z,1.13
2023-04-28T09:14:37.701Z,2.08
2023-04-28T09:17:14.737Z,1.65
2023-04-28T09:19:45.670Z,1.67
2023-04-28T09:22:26.461Z,1.75
2023-04-28T09:24:58.060Z,1.45
2023-04-28T09:27:32.183Z,1.30
2023-04-28T09:30:04.105Z,1.17
2023-04-28T09:32:37.426Z,1.10
2023-04-28T09:35:08.428Z,1.10
2023-04-28T09:37:39.081Z,1.10
2023-04-28T09:40:12.502Z,0.90
2023-04-28T09:42:44.505Z,1.00
2023-04-28T09:45:15.992Z,1.02
2023-04-28T09:47:50.213Z,1.50
2023-04-28T09:50:21.004Z,1.40
2023-04-28T09:53:00.376Z,1.02
2023-04-28T09:55:33.167Z,0.93
2023-04-28T09:58:08.937Z,0.95
2023-04-28T10:00:42.174Z,1.67
2023-04-28T10:03:18.085Z,1.20
2023-04-28T10:05:50.444Z,1.10
2023-04-28T10:08:21.916Z,1.00
2023-04-28T10:10:54.937Z,1.40
2023-04-28T10:13:27.040Z,1.35
2023-04-28T10:15:58.797Z,1.05
2023-04-28T10:18:35.425Z,2.10
2023-04-28T10:21:07.854Z,1.52
2023-04-28T10:24:03.736Z,1.40
2023-04-28T10:27:06.543Z,1.52
2023-04-28T10:29:38.366Z,1.73
2023-04-28T10:32:28.934Z,1.10
2023-04-28T10:35:38.634Z,1.00
2023-04-28T10:38:13.845Z,0.88
2023-04-28T10:40:45.736Z,1.50
2023-04-28T10:43:17.585Z,1.63
2023-04-28T10:46:05.264Z,1.45
2023-04-28T10:49:08.629Z,1.50
2023-04-28T10:51:39.501Z,0.70
2023-04-28T10:54:22.766Z,1.50
2023-04-28T10:57:21.707Z,1.20
2023-04-28T10:59:53.527Z,1.20
2023-04-28T11:02:45.082Z,1.50
2023-04-28T11:05:20.733Z,1.00
2023-04-28T11:08:34.037Z,1.10
2023-04-28T11:11:21.863Z,1.42
2023-04-28T11:13:53.773Z,1.10
2023-04-28T11:16:27.113Z,1.00
2023-04-28T11:19:05.097Z,1.58
2023-04-28T11:21:36.863Z,1.48
2023-04-28T11:24:14.094Z,1.52
2023-04-28T11:26:48.127Z,3.85
2023-04-28T11:29:18.988Z,2.20
2023-04-28T11:31:54.010Z,1.40
2023-04-28T11:34:25.769Z,1.20
2023-04-28T11:36:56.824Z,1.50
2023-04-28T11:39:32.411Z,1.50
2023-04-28T11:42:13.097Z,1.50
2023-04-28T11:44:43.921Z,1.20
2023-04-28T11:47:15.005Z,1.70
2023-04-28T11:49:47.182Z,1.80
2023-04-28T11:52:18.125Z,1.25
2023-04-28T11:54:49.057Z,1.38
2023-04-28T11:57:27.001Z,1.98
2023-04-28T12:00:15.336Z,1.60
2023-04-28T12:02:46.590Z,1.00
2023-04-28T12:05:17.821Z,1.50
2023-04-28T12:07:49.094Z,1.33
2023-04-28T12:10:20.451Z,1.30
2023-04-28T12:12:53.868Z,1.20
2023-04-28T12:15:25.765Z,1.30
2023-04-28T12:17:57.033Z,1.02
2023-04-28T12:20:41.317Z,1.25
2023-04-28T12:23:12.347Z,1.15
2023-04-28T12:25:50.247Z,0.98
2023-04-28T12:28:23.616Z,1.27
2023-04-28T12:31:06.602Z,1.02
2023-04-28T12:33:38.656Z,1.33
2023-04-28T12:36:10.370Z,1.42
2023-04-28T12:38:51.158Z,2.20
2023-04-28T12:41:22.051Z,1.55
2023-04-28T12:43:55.446Z,1.50
2023-04-28T12:46:26.297Z,1.60
2023-04-28T12:48:57.409Z,1.80
2023-04-28T12:51:29.919Z,1.52
2023-04-28T12:54:00.765Z,1.52
2023-04-28T12:56:32.119Z,1.67
2023-04-28T12:59:06.388Z,1.80
2023-04-28T13:01:37.682Z,2.00
2023-04-28T13:04:10.192Z,2.38
2023-04-28T13:06:44.338Z,1.75
2023-04-28T13:09:15.643Z,1.77
2023-04-28T13:11:47.454Z,1.58
2023-04-28T13:14:20.910Z,1.05
2023-04-28T13:16:52.077Z,1.10
2023-04-28T13:19:23.350Z,1.30
2023-04-28T13:21:54.455Z,1.10
2023-04-28T13:24:25.310Z,1.90
2023-04-28T13:26:56.140Z,1.27
2023-04-28T13:29:29.663Z,2.00
2023-04-28T13:32:00.719Z,1.75
2023-04-28T13:34:31.932Z,1.10
2023-04-28T13:37:02.867Z,1.50
2023-04-28T13:39:33.790Z,1.40
2023-04-28T13:42:06.208Z,1.60
2023-04-28T13:44:39.661Z,1.40
2023-04-28T13:47:11.196Z,1.35
2023-04-28T13:49:42.038Z,1.25
2023-04-28T13:52:12.810Z,1.75
2023-04-28T13:54:45.733Z,1.20
2023-04-28T13:57:16.762Z,1.60
2023-04-28T13:59:50.199Z,1.30
2023-04-28T14:02:21.254Z,1.33
2023-04-28T14:04:53.984Z,1.10
2023-04-28T14:07:24.897Z,1.27
2023-04-28T14:09:55.778Z,2.33
2023-04-28T14:12:27.207Z,1.92
2023-04-28T14:15:00.849Z,2.55
2023-04-28T14:17:32.825Z,1.65
2023-04-28T14:20:04.151Z,1.15
2023-04-28T14:22:35.124Z,0.93
2023-04-28T14:25:06.026Z,1.10
2023-04-28T14:27:37.012Z,1.02
2023-04-28T14:30:11.986Z,0.90
2023-04-28T14:32:42.922Z,1.02
2023-04-28T14:35:15.821Z,1.10
2023-04-28T14:37:47.361Z,1.20
2023-04-28T14:40:18.593Z,1.08
2023-04-28T14:42:49.464Z,1.00
2023-04-28T14:45:22.968Z,1.67
2023-04-28T14:47:54.206Z,1.00
2023-04-28T14:50:25.255Z,1.30
2023-04-28T14:52:56.178Z,1.00
2023-04-28T14:55:27.010Z,1.20
2023-04-28T14:57:57.832Z,1.40
2023-04-28T15:00:31.720Z,1.20
2023-04-28T15:03:02.684Z,1.75
2023-04-28T15:05:33.817Z,1.60
2023-04-28T15:08:04.667Z,1.35
2023-04-28T15:10:41.524Z,1.35
2023-04-28T15:15:45.736Z,1.27
2023-04-28T15:18:16.551Z,1.48
2023-04-28T15:20:47.561Z,1.55
2023-04-28T15:23:20.090Z,2.95
2023-04-28T15:25:53.770Z,3.72
2023-04-28T15:28:25.190Z,3.85
2023-04-28T15:30:58.675Z,3.63
2023-04-28T15:33:29.530Z,3.50
2023-04-28T15:36:00.915Z,3.15
2023-04-28T15:38:32.032Z,4.10
2023-04-28T15:41:02.910Z,3.25
2023-04-28T15:43:33.841Z,3.40
2023-04-28T15:46:09.624Z,2.80
2023-04-28T15:48:41.088Z,3.70
2023-04-28T15:51:12.969Z,3.95
2023-04-28T15:53:43.917Z,3.90
2023-04-28T15:56:15.091Z,4.88
2023-04-28T15:58:48.057Z,3.67
2023-04-28T16:01:22.275Z,3.95
2023-04-28T16:03:53.417Z,3.45
2023-04-28T16:06:24.982Z,3.45
2023-04-28T16:08:57.207Z,3.97
2023-04-28T16:11:28.130Z,4.25
2023-04-28T16:13:58.969Z,4.65
2023-04-28T16:16:32.559Z,4.07
2023-04-28T16:19:03.469Z,3.47
2023-04-28T16:21:34.555Z,4.38
2023-04-28T16:24:05.988Z,4.43
2023-04-28T16:26:37.016Z,3.63
2023-04-28T16:29:08.012Z,3.95
2023-04-28T16:31:41.459Z,3.15
2023-04-28T16:34:12.420Z,3.38
2023-04-28T16:36:43.249Z,3.50
2023-04-28T16:39:14.088Z,3.95
2023-04-28T16:41:44.971Z,3.30
2023-04-28T16:44:16.108Z,3.42
2023-04-28T16:46:51.498Z,3.10
2023-04-28T16:49:22.656Z,2.78
2023-04-28T16:52:00.857Z,2.80
2023-04-28T16:54:32.248Z,2.70
2023-04-28T16:57:05.438Z,3.20
2023-04-28T16:59:36.323Z,2.83
2023-04-28T17:02:09.876Z,2.78
2023-04-28T17:04:41.067Z,3.05
2023-04-28T17:07:12.044Z,2.90
2023-04-28T17:09:42.957Z,2.88
2023-04-28T17:12:13.944Z,3.72
2023-04-28T17:14:44.772Z,3.03
2023-04-28T17:17:18.884Z,4.20
2023-04-28T17:19:50.150Z,4.50
2023-04-28T17:22:21.214Z,4.40
2023-04-28T17:24:52.058Z,4.07
2023-04-28T17:27:23.066Z,4.55
2023-04-28T17:29:54.410Z,4.40
2023-04-28T17:32:31.135Z,4.43
2023-04-28T17:35:02.181Z,2.88
2023-04-28T17:37:34.947Z,3.20
2023-04-28T17:40:06.163Z,3.83
2023-04-28T17:42:37.036Z,3.80
2023-04-28T17:45:08.922Z,3.70
2023-04-28T17:47:42.466Z,3.95
2023-04-28T17:50:14.157Z,3.50
2023-04-28T17:52:45.452Z,3.80
2023-04-28T17:55:16.560Z,3.38
2023-04-28T17:57:47.600Z,3.60
2023-04-28T18:00:18.860Z,3.80
2023-04-28T18:02:52.897Z,3.35
2023-04-28T18:05:24.818Z,3.30
2023-04-28T18:07:55.875Z,3.40
2023-04-28T18:10:28.502Z,3.53
2023-04-28T18:13:02.701Z,4.00
2023-04-28T18:15:33.585Z,3.63
2023-04-28T18:18:07.114Z,3.95
2023-04-28T18:20:37.968Z,3.92
2023-04-28T18:23:09.872Z,4.10
2023-04-28T18:25:41.434Z,4.05
2023-04-28T18:28:12.425Z,4.00
2023-04-28T18:30:40.485Z,4.32
2023-04-28T18:33:14.050Z,3.72
2023-04-28T18:35:45.113Z,3.47
2023-04-28T18:38:16.111Z,4.03
2023-04-28T18:40:47.080Z,4.45
2023-04-28T18:43:17.999Z,4.00
2023-04-28T18:45:48.867Z,4.45
2023-04-28T18:48:22.903Z,4.32
2023-04-28T18:50:54.169Z,4.05
2023-04-28T18:53:25.068Z,3.75
2023-04-28T18:55:58.413Z,3.72
2023-04-28T18:58:29.342Z,3.63
2023-04-28T19:01:00.327Z,3.72
2023-04-28T19:03:34.047Z,4.10
2023-04-28T19:06:05.160Z,3.70
2023-04-28T19:08:39.225Z,3.92
2023-04-28T19:11:10.583Z,3.83
2023-04-28T19:13:41.705Z,3.75
2023-04-28T19:16:13.068Z,3.63
2023-04-28T19:18:46.548Z,3.90
2023-04-28T19:21:17.376Z,3.95
2023-04-28T19:23:48.664Z,4.10
2023-04-28T19:26:19.684Z,4.18
2023-04-28T19:28:50.692Z,3.92
2023-04-28T19:31:21.695Z,4.18
2023-04-28T19:33:55.170Z,3.95
2023-04-28T19:36:25.990Z,4.38
2023-04-28T19:38:56.784Z,4.50
2023-04-28T19:41:28.140Z,4.68
2023-04-28T19:43:58.990Z,4.30
2023-04-28T19:46:29.897Z,4.95
2023-04-28T19:49:03.316Z,4.35
2023-04-28T19:51:34.199Z,5.47
2023-04-28T19:54:05.013Z,5.18
2023-04-28T19:56:37.475Z,5.18
2023-04-28T19:59:08.297Z,4.68
2023-04-28T20:01:42.115Z,5.28
2023-04-28T20:04:15.962Z,2.95
2023-04-28T20:06:48.134Z,5.07
2023-04-28T20:09:19.123Z,5.15
2023-04-28T20:11:49.958Z,4.90
2023-04-28T20:14:22.009Z,4.70
2023-04-28T20:16:52.881Z,5.20
2023-04-28T20:19:26.932Z,4.63
2023-04-28T20:21:57.780Z,4.90
2023-04-28T20:24:28.729Z,5.45
2023-04-28T20:26:59.757Z,5.50
2023-04-28T20:29:31.782Z,5.28
2023-04-28T20:32:02.765Z,4.80
2023-04-28T20:34:36.655Z,5.05
2023-04-28T20:37:08.533Z,5.18
2023-04-28T20:39:39.462Z,5.50
2023-04-28T20:42:10.455Z,5.30
2023-04-28T20:44:41.735Z,5.00
2023-04-28T20:47:12.605Z,4.85
2023-04-28T20:49:47.833Z,4.47
2023-04-28T20:52:19.627Z,4.05
2023-04-28T20:54:52.704Z,5.28
2023-04-28T20:57:24.741Z,4.40
2023-04-28T20:59:55.808Z,4.70
2023-04-28T21:02:26.815Z,5.60
2023-04-28T21:05:00.474Z,4.63
2023-04-28T21:07:31.504Z,4.30
2023-04-28T21:10:02.538Z,4.15
2023-04-28T21:12:33.409Z,4.75
2023-04-28T21:15:04.569Z,4.40
2023-04-28T21:17:35.506Z,4.53
2023-04-28T21:20:10.141Z,4.10
2023-04-28T21:22:41.058Z,3.28
2023-04-28T21:25:12.768Z,3.63
2023-04-28T21:27:43.928Z,3.55
2023-04-28T21:30:15.589Z,3.20
2023-04-28T21:32:46.529Z,2.78
2023-04-28T21:35:20.098Z,3.28
2023-04-28T21:37:51.023Z,3.35
2023-04-28T21:40:22.102Z,2.63
2023-04-28T21:42:52.942Z,3.00
2023-04-28T21:45:23.876Z,2.88
2023-04-28T21:47:54.778Z,2.80
2023-04-28T21:50:28.429Z,2.85
2023-04-28T21:52:59.515Z,3.10
2023-04-28T21:55:30.407Z,3.05
2023-04-28T21:58:01.222Z,2.90
2023-04-28T22:00:32.254Z,2.92
2023-04-28T22:03:03.361Z,2.22
2023-04-28T22:05:38.836Z,2.67
2023-04-28T22:08:12.908Z,2.45
2023-04-28T22:10:46.835Z,2.65
2023-04-28T22:13:18.655Z,2.15
2023-04-28T22:15:50.146Z,2.50
2023-04-28T22:18:21.014Z,2.47
2023-04-28T22:20:54.673Z,2.50
2023-04-28T22:23:25.852Z,2.72
2023-04-28T22:25:57.243Z,3.15
2023-04-28T22:28:29.037Z,2.33
2023-04-28T22:31:01.465Z,2.88
2023-04-28T22:33:33.360Z,2.83
2023-04-28T22:36:08.051Z,2.95
2023-04-28T22:38:39.242Z,3.05
2023-04-28T22:41:10.036Z,2.78
2023-04-28T22:43:41.190Z,2.80
2023-04-28T22:46:12.391Z,2.95
2023-04-28T22:48:43.348Z,2.65
2023-04-28T22:51:16.892Z,2.50
2023-04-28T22:53:47.741Z,2.95
2023-04-28T22:56:19.231Z,3.22
2023-04-28T22:58:50.066Z,3.03
2023-04-28T23:01:20.885Z,2.35
2023-04-28T23:03:51.834Z,2.30
2023-04-28T23:06:25.484Z,1.65
2023-04-28T23:08:56.409Z,1.80
2023-04-28T23:11:27.752Z,1.73
2023-04-28T23:13:59.065Z,1.65
2023-04-28T23:16:29.990Z,1.90
2023-04-28T23:19:00.990Z,1.58
2023-04-28T23:21:34.498Z,1.20
2023-04-28T23:24:05.994Z,1.50
2023-04-28T23:26:37.016Z,1.48
2023-04-28T23:29:09.096Z,1.45
2023-04-28T23:31:40.693Z,1.20
2023-04-28T23:34:11.871Z,1.35
2023-04-28T23:36:45.408Z,1.40
2023-04-28T23:39:16.570Z,1.23
2023-04-28T23:41:47.476Z,1.67
2023-04-28T23:44:18.394Z,1.95
2023-04-28T23:46:49.503Z,1.35
2023-04-28T23:49:21.295Z,1.77
2023-04-28T23:51:54.818Z,2.10
2023-04-28T23:54:25.744Z,1.80
2023-04-28T23:56:57.244Z,1.67
2023-04-28T23:59:28.273Z,2.05
